createdAt,value
2022-11-27T00:02:24.142Z,13.40
2022-11-27T00:04:51.029Z,13.20
2022-11-27T00:07:17.867Z,12.85
2022-11-27T00:09:44.735Z,13.20
2022-11-27T00:12:11.565Z,12.18
2022-11-27T00:14:38.391Z,12.82
2022-11-27T00:17:05.355Z,12.80
2022-11-27T00:19:32.157Z,12.98
2022-11-27T00:21:58.961Z,13.10
2022-11-27T00:24:25.754Z,12.88
2022-11-27T00:26:52.549Z,13.13
2022-11-27T00:29:19.413Z,14.68
2022-11-27T00:31:46.259Z,15.20
2022-11-27T00:34:13.087Z,15.38
2022-11-27T00:36:43.942Z,16.23
2022-11-27T00:39:13.711Z,16.98
2022-11-27T00:41:40.575Z,17.63
2022-11-27T00:44:07.359Z,16.80
2022-11-27T00:46:35.533Z,18.05
2022-11-27T00:49:04.861Z,17.98
2022-11-27T00:51:31.962Z,17.23
2022-11-27T00:53:59.393Z,15.40
2022-11-27T00:56:31.263Z,15.90
2022-11-27T00:58:58.846Z,18.83
2022-11-27T01:01:31.666Z,15.70
2022-11-27T01:04:00.287Z,17.98
2022-11-27T01:06:28.382Z,17.50
2022-11-27T01:08:55.464Z,19.05
2022-11-27T01:11:27.935Z,20.63
2022-11-27T01:13:57.469Z,18.90
2022-11-27T01:16:26.413Z,19.70
2022-11-27T01:18:55.549Z,19.75
2022-11-27T01:21:22.669Z,20.33
2022-11-27T01:23:50.347Z,20.65
2022-11-27T01:26:18.511Z,21.70
2022-11-27T01:28:46.338Z,20.63
2022-11-27T01:31:16.739Z,22.10
2022-11-27T01:33:44.914Z,21.15
2022-11-27T01:36:13.716Z,20.55
2022-11-27T01:38:41.153Z,21.23
2022-11-27T01:41:07.894Z,18.77
2022-11-27T01:43:50.341Z,20.13
2022-11-27T01:46:20.190Z,20.50
2022-11-27T01:48:47.520Z,20.08
2022-11-27T01:51:14.584Z,19.95
2022-11-27T01:53:42.016Z,21.70
2022-11-27T01:56:09.618Z,20.38
2022-11-27T01:58:36.883Z,21.17
2022-11-27T02:01:04.946Z,19.73
2022-11-27T02:03:32.528Z,19.95
2022-11-27T02:05:59.367Z,21.45
2022-11-27T02:08:26.399Z,20.00
2022-11-27T02:11:07.036Z,21.70
2022-11-27T02:14:07.145Z,20.38
2022-11-27T02:16:56.450Z,18.75
2022-11-27T02:19:38.524Z,20.95
2022-11-27T02:22:44.356Z,20.05
2022-11-27T02:25:30.844Z,20.00
2022-11-27T02:28:18.934Z,21.67
2022-11-27T02:31:18.464Z,19.98
2022-11-27T02:33:50.299Z,17.50
2022-11-27T02:36:25.231Z,19.50
2022-11-27T02:38:55.843Z,16.30
2022-11-27T02:41:46.970Z,14.05
2022-11-27T02:44:16.477Z,14.73
2022-11-27T02:46:46.020Z,13.68
2022-11-27T02:49:16.936Z,13.45
2022-11-27T02:51:51.104Z,13.73
2022-11-27T02:54:24.401Z,12.82
2022-11-27T02:56:52.733Z,12.48
2022-11-27T02:59:21.861Z,12.80
2022-11-27T03:01:55.466Z,14.02
2022-11-27T03:04:28.347Z,13.05
2022-11-27T03:07:00.114Z,13.30
2022-11-27T03:09:36.018Z,10.75
2022-11-27T03:12:08.894Z,10.45
2022-11-27T03:14:39.229Z,8.52
2022-11-27T03:17:11.447Z,9.45
2022-11-27T03:19:56.340Z,11.50
2022-11-27T03:22:23.322Z,10.30
2022-11-27T03:24:50.206Z,8.60
2022-11-27T03:27:40.783Z,8.77
2022-11-27T03:30:09.967Z,8.00
2022-11-27T03:32:37.426Z,8.43
2022-11-27T03:35:07.903Z,7.78
2022-11-27T03:37:34.775Z,8.20
2022-11-27T03:40:02.057Z,7.13
2022-11-27T03:42:53.540Z,7.50
2022-11-27T03:45:50.508Z,7.38
2022-11-27T03:48:28.851Z,7.43
2022-11-27T03:51:06.599Z,7.07
2022-11-27T03:53:48.458Z,7.05
2022-11-27T03:56:24.208Z,7.88
2022-11-27T03:59:22.294Z,7.03
2022-11-27T04:01:49.296Z,7.20
2022-11-27T04:04:16.308Z,7.10
2022-11-27T04:06:43.154Z,6.95
2022-11-27T04:09:10.036Z,7.70
2022-11-27T04:11:37.019Z,6.82
2022-11-27T04:14:03.916Z,6.68
2022-11-27T04:16:30.887Z,6.85
2022-11-27T04:18:57.742Z,5.65
2022-11-27T04:21:24.580Z,5.85
2022-11-27T04:23:51.380Z,6.03
2022-11-27T04:26:18.184Z,5.80
2022-11-27T04:28:44.978Z,6.80
2022-11-27T04:31:11.864Z,6.28
2022-11-27T04:33:38.687Z,6.95
2022-11-27T04:36:05.912Z,7.22
2022-11-27T04:38:32.672Z,6.40
2022-11-27T04:40:59.552Z,6.50
2022-11-27T04:43:26.339Z,6.18
2022-11-27T04:45:53.191Z,5.70
2022-11-27T04:48:20.007Z,6.13
2022-11-27T04:50:46.869Z,6.38
2022-11-27T04:53:13.655Z,6.43
2022-11-27T04:55:40.454Z,6.47
2022-11-27T04:58:07.263Z,6.88
2022-11-27T05:00:34.135Z,7.03
2022-11-27T05:03:01.066Z,7.50
2022-11-27T05:05:27.925Z,6.45
2022-11-27T05:07:54.805Z,6.40
2022-11-27T05:10:21.647Z,7.80
2022-11-27T05:12:48.437Z,8.15
2022-11-27T05:15:15.307Z,8.57
2022-11-27T05:17:42.090Z,7.63
2022-11-27T05:20:09.347Z,8.15
2022-11-27T05:22:36.295Z,7.60
2022-11-27T05:25:03.168Z,8.77
2022-11-27T05:27:29.964Z,8.85
2022-11-27T05:29:56.770Z,11.05
2022-11-27T05:32:23.575Z,14.73
2022-11-27T05:34:50.467Z,14.40
2022-11-27T05:37:19.645Z,15.05
2022-11-27T05:39:47.245Z,16.23
2022-11-27T05:42:14.194Z,15.70
2022-11-27T05:44:41.154Z,16.33
2022-11-27T05:47:08.139Z,15.85
2022-11-27T05:49:35.299Z,14.27
2022-11-27T05:52:02.133Z,13.88
2022-11-27T05:54:28.941Z,13.50
2022-11-27T05:56:55.767Z,14.20
2022-11-27T05:59:22.627Z,14.15
2022-11-27T06:01:49.691Z,14.20
2022-11-27T06:04:16.863Z,13.32
2022-11-27T06:06:43.759Z,13.32
2022-11-27T06:09:13.123Z,14.07
2022-11-27T06:11:40.692Z,13.02
2022-11-27T06:14:08.966Z,14.80
2022-11-27T06:16:36.282Z,13.90
2022-11-27T06:19:03.133Z,13.93
2022-11-27T06:21:29.969Z,13.95
2022-11-27T06:23:57.096Z,14.43
2022-11-27T06:26:26.591Z,14.07
2022-11-27T06:28:54.452Z,13.25
2022-11-27T06:31:23.876Z,13.73
2022-11-27T06:33:53.006Z,13.50
2022-11-27T06:36:21.265Z,14.05
2022-11-27T06:38:48.111Z,13.15
2022-11-27T06:41:20.464Z,14.38
2022-11-27T06:43:48.006Z,12.45
2022-11-27T06:46:17.503Z,12.07
2022-11-27T06:48:45.871Z,12.90
2022-11-27T06:51:15.572Z,13.10
2022-11-27T06:53:42.978Z,12.60
2022-11-27T06:56:12.202Z,12.20
2022-11-27T06:58:39.934Z,12.05
2022-11-27T07:01:11.109Z,12.63
2022-11-27T07:03:38.035Z,11.95
2022-11-27T07:06:07.387Z,12.10
2022-11-27T07:08:35.578Z,11.50
2022-11-27T07:11:07.593Z,11.10
2022-11-27T07:13:34.442Z,11.32
2022-11-27T07:16:07.030Z,10.57
2022-11-27T07:18:39.726Z,10.40
2022-11-27T07:21:06.514Z,9.75
2022-11-27T07:23:33.691Z,8.75
2022-11-27T07:26:09.978Z,8.80
2022-11-27T07:28:36.938Z,8.50
2022-11-27T07:31:04.677Z,8.35
2022-11-27T07:33:31.955Z,7.80
2022-11-27T07:36:05.673Z,8.45
2022-11-27T07:38:32.589Z,7.70
2022-11-27T07:41:03.904Z,7.63
2022-11-27T07:43:32.249Z,7.90
2022-11-27T07:46:02.912Z,7.13
2022-11-27T07:48:29.742Z,6.87
2022-11-27T07:50:56.531Z,6.10
2022-11-27T07:53:23.328Z,6.30
2022-11-27T07:55:50.134Z,5.90
2022-11-27T07:58:16.986Z,5.83
2022-11-27T08:00:43.955Z,4.70
2022-11-27T08:03:11.315Z,5.40
2022-11-27T08:05:38.302Z,6.17
2022-11-27T08:08:05.364Z,5.80
2022-11-27T08:10:35.982Z,5.90
2022-11-27T08:13:03.080Z,5.87
2022-11-27T08:15:29.925Z,5.63
2022-11-27T08:17:57.138Z,5.23
2022-11-27T08:20:24.362Z,6.10
2022-11-27T08:22:51.508Z,6.23
2022-11-27T08:25:18.582Z,5.90
2022-11-27T08:27:46.327Z,6.03
2022-11-27T08:30:13.472Z,5.73
2022-11-27T08:32:41.794Z,5.90
2022-11-27T08:35:09.839Z,6.33
2022-11-27T08:37:36.960Z,6.00
2022-11-27T08:40:05.070Z,5.50
2022-11-27T08:42:31.869Z,5.93
2022-11-27T08:44:58.754Z,6.37
2022-11-27T08:47:25.594Z,6.00
2022-11-27T08:49:52.573Z,5.90
2022-11-27T08:52:20.595Z,5.93
2022-11-27T08:54:47.430Z,6.43
2022-11-27T08:57:14.266Z,5.23
2022-11-27T08:59:41.094Z,6.53
2022-11-27T09:02:12.359Z,5.60
2022-11-27T09:04:39.488Z,6.30
2022-11-27T09:07:06.509Z,6.30
2022-11-27T09:09:33.344Z,5.93
2022-11-27T09:12:00.142Z,5.67
2022-11-27T09:14:26.946Z,5.60
2022-11-27T09:16:54.035Z,6.20
2022-11-27T09:19:21.671Z,6.60
2022-11-27T09:21:50.844Z,6.50
2022-11-27T09:24:17.785Z,6.70
2022-11-27T09:26:44.924Z,6.30
2022-11-27T09:29:11.752Z,6.10
2022-11-27T09:31:38.657Z,5.43
2022-11-27T09:34:05.846Z,6.40
2022-11-27T09:36:32.862Z,5.40
2022-11-27T09:39:00.328Z,6.00
2022-11-27T09:41:42.568Z,6.20
2022-11-27T09:44:45.427Z,5.83
2022-11-27T09:47:52.955Z,5.37
2022-11-27T09:50:50.193Z,5.43
2022-11-27T09:53:35.604Z,5.10
2022-11-27T09:56:06.989Z,4.80
2022-11-27T09:58:40.811Z,5.10
2022-11-27T10:01:17.307Z,5.40
2022-11-27T10:03:45.877Z,5.27
2022-11-27T10:06:23.235Z,5.43
2022-11-27T10:09:07.856Z,5.30
2022-11-27T10:11:46.686Z,6.10
2022-11-27T10:14:31.892Z,5.40
2022-11-27T10:17:22.661Z,4.93
2022-11-27T10:20:16.886Z,5.40
2022-11-27T10:23:02.372Z,4.60
2022-11-27T10:25:44.304Z,4.90
2022-11-27T10:28:19.637Z,4.47
2022-11-27T10:31:13.767Z,4.20
2022-11-27T10:33:49.304Z,4.03
2022-11-27T10:36:22.106Z,4.77
2022-11-27T10:38:49.869Z,4.93
2022-11-27T10:41:48.102Z,4.30
2022-11-27T10:44:38.648Z,4.90
2022-11-27T10:47:08.882Z,5.13
2022-11-27T10:49:40.282Z,5.90
2022-11-27T10:52:15.452Z,5.47
2022-11-27T10:54:44.156Z,5.70
2022-11-27T10:57:59.428Z,5.40
2022-11-27T11:00:27.877Z,5.27
2022-11-27T11:03:03.516Z,4.83
2022-11-27T11:05:41.379Z,5.33
2022-11-27T11:08:20.122Z,4.80
2022-11-27T11:11:05.775Z,4.93
2022-11-27T11:13:41.623Z,5.40
2022-11-27T11:16:14.633Z,5.43
2022-11-27T11:18:42.762Z,5.40
2022-11-27T11:21:33.945Z,5.40
2022-11-27T11:24:03.985Z,4.80
2022-11-27T11:26:44.419Z,5.10
2022-11-27T11:29:29.870Z,5.63
2022-11-27T11:32:03.208Z,5.27
2022-11-27T11:34:31.394Z,5.63
2022-11-27T11:36:59.334Z,5.30
2022-11-27T11:39:29.874Z,5.70
2022-11-27T11:41:57.523Z,5.30
2022-11-27T11:44:37.745Z,5.37
2022-11-27T11:47:04.679Z,5.27
2022-11-27T11:49:34.089Z,5.37
2022-11-27T11:52:10.031Z,5.70
2022-11-27T11:54:51.480Z,5.27
2022-11-27T11:57:45.582Z,5.90
2022-11-27T12:00:16.977Z,5.80
2022-11-27T12:03:13.613Z,7.00
2022-11-27T12:06:13.030Z,6.60
2022-11-27T12:08:57.857Z,6.57
2022-11-27T12:11:36.382Z,6.37
2022-11-27T12:14:27.751Z,5.87
2022-11-27T12:17:09.384Z,6.10
2022-11-27T12:20:07.694Z,6.10
2022-11-27T12:22:37.374Z,6.63
2022-11-27T12:25:15.932Z,6.75
2022-11-27T12:28:07.204Z,6.68
2022-11-27T12:30:40.039Z,7.00
2022-11-27T12:33:17.822Z,5.88
2022-11-27T12:36:06.765Z,6.43
2022-11-27T12:38:39.559Z,7.55
2022-11-27T12:41:35.173Z,7.00
2022-11-27T12:44:02.500Z,6.78
2022-11-27T12:46:54.702Z,7.57
2022-11-27T12:49:39.841Z,7.70
2022-11-27T12:52:14.837Z,7.63
2022-11-27T12:54:51.288Z,7.80
2022-11-27T12:57:23.726Z,7.97
2022-11-27T13:00:05.607Z,7.43
2022-11-27T13:02:40.954Z,8.50
2022-11-27T13:05:17.382Z,7.95
2022-11-27T13:07:51.002Z,7.70
2022-11-27T13:10:32.913Z,6.82
2022-11-27T13:13:30.272Z,8.30
2022-11-27T13:16:18.756Z,7.97
2022-11-27T13:18:55.904Z,7.43
2022-11-27T13:21:26.582Z,9.30
2022-11-27T13:23:54.170Z,8.82
2022-11-27T13:27:00.848Z,8.32
2022-11-27T13:29:39.118Z,8.20
2022-11-27T13:32:08.658Z,8.23
2022-11-27T13:34:44.833Z,8.75
2022-11-27T13:37:23.915Z,9.30
2022-11-27T13:39:50.943Z,9.27
2022-11-27T13:42:22.244Z,8.65
2022-11-27T13:45:06.437Z,8.65
2022-11-27T13:47:41.052Z,9.52
2022-11-27T13:50:15.820Z,9.80
2022-11-27T13:53:00.185Z,9.40
2022-11-27T13:55:31.639Z,11.10
2022-11-27T13:57:59.825Z,10.57
2022-11-27T14:00:44.863Z,9.57
2022-11-27T14:03:41.304Z,9.82
2022-11-27T14:06:27.240Z,10.27
2022-11-27T14:08:56.403Z,10.27
2022-11-27T14:11:40.242Z,9.63
2022-11-27T14:14:25.023Z,11.55
2022-11-27T14:17:04.997Z,10.57
2022-11-27T14:19:42.104Z,12.10
2022-11-27T14:22:16.720Z,11.52
2022-11-27T14:24:45.899Z,11.30
2022-11-27T14:27:25.336Z,11.02
2022-11-27T14:29:52.524Z,10.68
2022-11-27T14:32:20.802Z,12.30
2022-11-27T14:34:48.805Z,10.40
2022-11-27T14:37:27.214Z,11.02
2022-11-27T14:39:55.126Z,10.40
2022-11-27T14:42:29.554Z,11.60
2022-11-27T14:45:08.900Z,11.60
2022-11-27T14:47:36.577Z,12.32
2022-11-27T14:50:04.124Z,10.88
2022-11-27T14:52:31.547Z,10.73
2022-11-27T14:54:59.508Z,11.27
2022-11-27T14:57:30.519Z,11.90
2022-11-27T15:00:18.670Z,11.45
2022-11-27T15:02:48.103Z,11.65
2022-11-27T15:05:19.458Z,10.25
2022-11-27T15:07:50.833Z,10.82
2022-11-27T15:10:23.222Z,11.25
2022-11-27T15:12:50.510Z,11.80
2022-11-27T15:15:22.514Z,11.13
2022-11-27T15:17:53.386Z,11.30
2022-11-27T15:20:42.449Z,10.02
2022-11-27T15:23:31.807Z,10.20
2022-11-27T15:26:15.089Z,11.02
2022-11-27T15:28:51.308Z,12.55
2022-11-27T15:31:34.787Z,11.60
2022-11-27T15:34:13.887Z,10.40
2022-11-27T15:36:58.512Z,11.02
2022-11-27T15:39:44.868Z,10.10
2022-11-27T15:42:11.981Z,9.77
2022-11-27T15:44:39.123Z,9.57
2022-11-27T15:47:07.134Z,10.32
2022-11-27T15:49:34.038Z,10.02
2022-11-27T15:52:00.847Z,10.02
2022-11-27T15:54:27.795Z,9.57
2022-11-27T15:56:54.606Z,10.00
2022-11-27T15:59:21.433Z,10.07
2022-11-27T16:01:49.646Z,8.00
2022-11-27T16:04:16.979Z,9.43
2022-11-27T16:06:43.791Z,9.85
2022-11-27T16:09:10.636Z,9.00
2022-11-27T16:11:37.563Z,7.70
2022-11-27T16:14:04.364Z,8.00
2022-11-27T16:16:31.326Z,9.43
2022-11-27T16:18:59.913Z,9.57
2022-11-27T16:21:29.739Z,10.75
2022-11-27T16:24:01.920Z,8.75
2022-11-27T16:26:29.663Z,10.68
2022-11-27T16:28:57.131Z,11.15
2022-11-27T16:31:25.148Z,10.10
2022-11-27T16:33:52.515Z,10.25
2022-11-27T16:36:22.567Z,11.15
2022-11-27T16:38:52.122Z,9.85
2022-11-27T16:41:19.337Z,12.05
2022-11-27T16:43:48.709Z,11.77
2022-11-27T16:46:29.949Z,11.70
2022-11-27T16:48:59.075Z,11.73
2022-11-27T16:51:28.702Z,11.45
2022-11-27T16:53:57.376Z,11.63
2022-11-27T16:56:26.006Z,12.20
2022-11-27T16:58:56.729Z,10.73
2022-11-27T17:01:37.267Z,11.70
2022-11-27T17:04:07.200Z,10.80
2022-11-27T17:06:35.286Z,10.40
2022-11-27T17:09:04.226Z,11.43
2022-11-27T17:11:33.913Z,12.57
2022-11-27T17:14:05.470Z,9.85
2022-11-27T17:16:33.107Z,10.85
2022-11-27T17:19:00.087Z,10.93
2022-11-27T17:21:30.107Z,11.23
2022-11-27T17:23:59.207Z,10.00
2022-11-27T17:26:28.086Z,10.38
2022-11-27T17:28:56.353Z,11.63
2022-11-27T17:31:32.714Z,9.63
2022-11-27T17:34:00.098Z,7.25
2022-11-27T17:36:28.130Z,11.05
2022-11-27T17:38:56.314Z,10.20
2022-11-27T17:41:23.960Z,9.98
2022-11-27T17:43:50.886Z,10.85
2022-11-27T17:46:20.985Z,10.60
2022-11-27T17:48:47.858Z,10.77
2022-11-27T17:51:14.655Z,10.82
2022-11-27T17:53:41.482Z,11.25
2022-11-27T17:56:10.759Z,12.38
2022-11-27T17:58:38.313Z,12.00
2022-11-27T18:01:07.321Z,12.60
2022-11-27T18:03:34.542Z,12.73
2022-11-27T18:06:05.679Z,11.70
2022-11-27T18:08:33.178Z,10.95
2022-11-27T18:11:22.046Z,10.68
2022-11-27T18:13:49.179Z,11.32
2022-11-27T18:16:22.953Z,12.13
2022-11-27T18:18:50.490Z,11.65
2022-11-27T18:21:19.812Z,10.32
2022-11-27T18:24:21.273Z,11.90
2022-11-27T18:27:06.431Z,10.05
2022-11-27T18:29:24.138Z,10.30
2022-11-27T18:31:52.766Z,9.65
2022-11-27T18:34:19.915Z,10.40
2022-11-27T18:36:46.763Z,11.10
2022-11-27T18:39:13.739Z,10.20
2022-11-27T18:41:41.046Z,11.30
2022-11-27T18:44:07.809Z,10.20
2022-11-27T18:46:34.937Z,10.65
2022-11-27T18:49:01.838Z,10.90
2022-11-27T18:51:28.724Z,11.50
2022-11-27T18:53:56.602Z,11.68
2022-11-27T18:56:27.107Z,10.70
2022-11-27T18:58:54.172Z,11.05
2022-11-27T19:01:30.688Z,11.18
2022-11-27T19:04:00.479Z,11.18
2022-11-27T19:06:29.883Z,10.70
2022-11-27T19:09:00.171Z,11.05
2022-11-27T19:11:28.603Z,11.40
2022-11-27T19:13:56.933Z,12.60
2022-11-27T19:16:33.208Z,11.93
2022-11-27T19:19:01.592Z,12.38
2022-11-27T19:21:30.243Z,10.40
2022-11-27T19:23:58.790Z,11.07
2022-11-27T19:26:28.959Z,11.70
2022-11-27T19:28:57.839Z,11.95
2022-11-27T19:31:25.966Z,12.40
2022-11-27T19:33:55.068Z,10.77
2022-11-27T19:36:23.091Z,11.10
2022-11-27T19:38:55.218Z,12.50
2022-11-27T19:41:22.756Z,13.05
2022-11-27T19:43:49.695Z,13.30
2022-11-27T19:46:22.919Z,11.70
2022-11-27T19:48:50.780Z,9.13
2022-11-27T19:51:17.856Z,12.48
2022-11-27T19:53:44.762Z,11.07
2022-11-27T19:56:11.719Z,11.60
2022-11-27T19:58:38.859Z,10.90
2022-11-27T20:01:14.270Z,13.00
2022-11-27T20:03:41.535Z,12.40
2022-11-27T20:06:13.975Z,12.65
2022-11-27T20:08:41.171Z,13.13
2022-11-27T20:11:11.469Z,11.48
2022-11-27T20:13:38.526Z,13.93
2022-11-27T20:16:10.090Z,14.23
2022-11-27T20:18:37.380Z,9.95
2022-11-27T20:21:11.301Z,14.43
2022-11-27T20:23:39.276Z,12.88
2022-11-27T20:26:11.718Z,13.18
2022-11-27T20:28:41.289Z,12.73
2022-11-27T20:31:17.516Z,12.68
2022-11-27T20:33:44.655Z,11.90
2022-11-27T20:36:16.990Z,13.52
2022-11-27T20:38:44.367Z,12.13
2022-11-27T20:41:14.105Z,12.60
2022-11-27T20:43:41.442Z,12.75
2022-11-27T20:46:08.765Z,13.15
2022-11-27T20:48:35.690Z,12.45
2022-11-27T20:51:11.258Z,12.75
2022-11-27T20:53:38.426Z,12.77
2022-11-27T20:56:07.408Z,11.90
2022-11-27T20:58:39.749Z,10.75
2022-11-27T21:01:30.888Z,12.00
2022-11-27T21:04:00.285Z,11.48
2022-11-27T21:06:29.361Z,11.43
2022-11-27T21:08:59.042Z,12.70
2022-11-27T21:11:29.324Z,13.10
2022-11-27T21:13:57.084Z,13.18
2022-11-27T21:16:25.553Z,12.30
2022-11-27T21:18:57.161Z,12.10
2022-11-27T21:21:23.970Z,11.35
2022-11-27T21:23:51.113Z,11.88
2022-11-27T21:26:18.566Z,12.55
2022-11-27T21:28:45.751Z,13.00
2022-11-27T21:31:18.670Z,12.10
2022-11-27T21:33:47.594Z,11.93
2022-11-27T21:36:15.140Z,11.63
2022-11-27T21:38:42.250Z,13.05
2022-11-27T21:41:09.735Z,12.38
2022-11-27T21:43:37.003Z,13.30
2022-11-27T21:46:17.248Z,12.57
2022-11-27T21:48:48.143Z,12.70
2022-11-27T21:51:15.410Z,12.60
2022-11-27T21:53:43.602Z,11.10
2022-11-27T21:56:12.973Z,11.05
2022-11-27T21:58:40.171Z,12.30
2022-11-27T22:01:11.146Z,9.57
2022-11-27T22:03:42.540Z,12.02
2022-11-27T22:06:15.061Z,11.57
2022-11-27T22:08:47.308Z,11.02
2022-11-27T22:11:17.356Z,11.05
2022-11-27T22:13:44.576Z,11.10
2022-11-27T22:16:13.813Z,11.35
2022-11-27T22:18:40.646Z,10.48
2022-11-27T22:21:09.139Z,11.68
2022-11-27T22:23:36.315Z,10.52
2022-11-27T22:26:04.607Z,10.68
2022-11-27T22:28:31.414Z,10.32
2022-11-27T22:30:58.269Z,10.55
2022-11-27T22:33:25.702Z,10.25
2022-11-27T22:35:52.543Z,9.88
2022-11-27T22:38:19.350Z,10.45
2022-11-27T22:40:46.183Z,11.30
2022-11-27T22:43:12.976Z,10.35
2022-11-27T22:45:40.069Z,7.35
2022-11-27T22:48:07.044Z,9.30
2022-11-27T22:50:34.059Z,6.13
2022-11-27T22:53:00.871Z,10.55
2022-11-27T22:55:28.182Z,10.20
2022-11-27T22:57:54.986Z,9.90
2022-11-27T23:00:22.967Z,10.00
2022-11-27T23:02:49.835Z,9.60
2022-11-27T23:05:16.703Z,8.13
2022-11-27T23:07:43.553Z,10.05
2022-11-27T23:10:10.825Z,10.73
2022-11-27T23:12:37.623Z,11.05
2022-11-27T23:15:04.931Z,10.65
2022-11-27T23:17:31.705Z,10.20
2022-11-27T23:19:58.480Z,9.70
2022-11-27T23:22:25.302Z,10.98
2022-11-27T23:24:53.805Z,10.45
2022-11-27T23:27:21.088Z,11.75
2022-11-27T23:29:47.882Z,12.25
2022-11-27T23:32:14.836Z,10.07
2022-11-27T23:34:41.976Z,11.07
2022-11-27T23:37:08.943Z,11.55
2022-11-27T23:39:35.799Z,10.15
2022-11-27T23:42:02.662Z,11.85
2022-11-27T23:44:29.502Z,10.52
2022-11-27T23:46:56.299Z,11.52
2022-11-27T23:49:23.676Z,11.80
2022-11-27T23:51:50.492Z,12.05
2022-11-27T23:54:17.281Z,11.32
2022-11-27T23:56:44.212Z,11.55
2022-11-27T23:59:11.067Z,10.90
